createdAt,value
2022-12-20T00:01:33.234Z,100999.34
2022-12-20T00:04:08.525Z,100987.09
2022-12-20T00:06:36.817Z,100985.50
2022-12-20T00:09:06.967Z,100981.09
2022-12-20T00:11:34.563Z,100967.84
2022-12-20T00:14:01.557Z,100981.09
2022-12-20T00:16:30.727Z,100967.97
2022-12-20T00:19:00.928Z,100969.69
2022-12-20T00:21:29.771Z,100962.25
2022-12-20T00:23:57.440Z,100976.13
2022-12-20T00:26:30.485Z,100968.16
2022-12-20T00:28:57.820Z,100968.91
2022-12-20T00:31:27.161Z,100972.44
2022-12-20T00:33:56.718Z,100972.56
2022-12-20T00:36:27.158Z,100955.03
2022-12-20T00:38:56.320Z,100963.44
2022-12-20T00:41:30.842Z,100964.09
2022-12-20T00:43:57.920Z,100946.66
2022-12-20T00:46:25.244Z,100958.81
2022-12-20T00:48:54.786Z,100947.22
2022-12-20T00:51:28.298Z,100947.00
2022-12-20T00:53:56.098Z,100939.59
2022-12-20T00:56:23.174Z,100947.34
2022-12-20T00:58:53.503Z,100944.44
2022-12-20T01:01:27.090Z,100952.19
2022-12-20T01:03:54.684Z,100953.59
2022-12-20T01:06:23.495Z,100946.19
2022-12-20T01:08:51.093Z,100953.97
2022-12-20T01:11:24.908Z,100942.66
2022-12-20T01:13:56.278Z,100950.22
2022-12-20T01:16:32.847Z,100941.69
2022-12-20T01:19:00.902Z,100938.81
2022-12-20T01:21:28.772Z,100952.78
2022-12-20T01:23:56.638Z,100942.66
2022-12-20T01:26:28.610Z,100940.28
2022-12-20T01:28:59.360Z,100936.44
2022-12-20T01:31:27.967Z,100930.09
2022-12-20T01:33:55.143Z,100929.97
2022-12-20T01:36:32.560Z,100921.13
2022-12-20T01:39:03.552Z,100926.50
2022-12-20T01:41:33.115Z,100932.66
2022-12-20T01:44:18.088Z,100933.41
2022-12-20T01:46:49.815Z,100931.44
2022-12-20T01:49:31.114Z,100919.84
2022-12-20T01:52:08.855Z,100916.31
2022-12-20T01:54:50.591Z,100912.41
2022-12-20T01:57:43.858Z,100918.53
2022-12-20T02:00:11.721Z,100910.59
2022-12-20T02:02:42.590Z,100914.25
2022-12-20T02:05:11.540Z,100904.34
2022-12-20T02:07:39.023Z,100905.22
2022-12-20T02:10:08.007Z,100908.63
2022-12-20T02:12:45.379Z,100910.34
2022-12-20T02:15:59.038Z,100912.06
2022-12-20T02:19:30.291Z,100906.81
2022-12-20T02:23:00.015Z,100892.47
2022-12-20T02:25:46.130Z,100889.06
2022-12-20T02:29:09.504Z,100892.47
2022-12-20T02:32:07.360Z,100880.63
2022-12-20T02:34:36.977Z,100872.94
2022-12-20T02:37:04.635Z,100882.47
2022-12-20T02:39:33.753Z,100886.78
2022-12-20T02:42:09.764Z,100887.53
2022-12-20T02:45:01.423Z,100893.53
2022-12-20T02:47:39.071Z,100882.78
2022-12-20T02:50:08.989Z,100894.50
2022-12-20T02:52:37.548Z,100907.63
2022-12-20T02:55:06.583Z,100891.34
2022-12-20T02:58:00.599Z,100885.13
2022-12-20T03:00:34.683Z,100883.91
2022-12-20T03:03:20.902Z,100874.16
2022-12-20T03:05:56.352Z,100865.84
2022-12-20T03:08:25.148Z,100864.75
2022-12-20T03:10:54.958Z,100862.59
2022-12-20T03:13:24.162Z,100850.72
2022-12-20T03:16:02.437Z,100858.34
2022-12-20T03:18:29.399Z,100858.75
2022-12-20T03:20:56.687Z,100867.56
2022-12-20T03:23:24.143Z,100868.97
2022-12-20T03:25:51.484Z,100862.81
2022-12-20T03:28:33.889Z,100852.81
2022-12-20T03:31:00.991Z,100846.41
2022-12-20T03:33:28.315Z,100861.38
2022-12-20T03:35:58.832Z,100863.94
2022-12-20T03:38:25.734Z,100866.88
2022-12-20T03:40:52.776Z,100872.28
2022-12-20T03:43:21.916Z,100870.22
2022-12-20T03:45:48.986Z,100872.44
2022-12-20T03:48:15.940Z,100855.44
2022-12-20T03:50:42.903Z,100864.97
2022-12-20T03:53:10.043Z,100872.84
2022-12-20T03:55:37.549Z,100875.00
2022-12-20T03:58:04.551Z,100878.31
2022-12-20T04:00:34.901Z,100878.44
2022-12-20T04:03:24.423Z,100885.44
2022-12-20T04:05:52.014Z,100882.50
2022-12-20T04:08:18.950Z,100878.84
2022-12-20T04:11:06.541Z,100875.53
2022-12-20T04:13:36.320Z,100863.53
2022-12-20T04:16:04.043Z,100873.22
2022-12-20T04:18:32.956Z,100875.91
2022-12-20T04:21:01.963Z,100865.03
2022-12-20T04:23:31.105Z,100864.16
2022-12-20T04:25:58.904Z,100863.66
2022-12-20T04:28:26.093Z,100880.56
2022-12-20T04:30:54.470Z,100875.28
2022-12-20T04:33:26.391Z,100868.91
2022-12-20T04:35:54.853Z,100876.38
2022-12-20T04:38:23.685Z,100877.59
2022-12-20T04:40:54.882Z,100881.34
2022-12-20T04:43:24.300Z,100875.88
2022-12-20T04:45:56.275Z,100871.59
2022-12-20T04:51:14.075Z,100875.88
2022-12-20T04:53:47.884Z,100872.56
2022-12-20T04:56:29.299Z,100865.94
2022-12-20T04:59:03.299Z,100859.72
2022-12-20T05:01:31.265Z,100849.03
2022-12-20T05:03:58.409Z,100861.03
2022-12-20T05:06:29.847Z,100852.06
2022-12-20T05:08:57.019Z,100851.34
2022-12-20T05:11:25.015Z,100850.59
2022-12-20T05:13:52.452Z,100834.91
2022-12-20T05:16:21.372Z,100841.16
2022-12-20T05:18:49.497Z,100842.13
2022-12-20T05:21:36.066Z,100841.50
2022-12-20T05:24:23.111Z,100838.06
2022-12-20T05:26:59.685Z,100836.81
2022-12-20T05:29:28.043Z,100843.56
2022-12-20T05:31:55.686Z,100840.13
2022-12-20T05:34:23.066Z,100839.06
2022-12-20T05:36:53.249Z,100834.72
2022-12-20T05:39:22.322Z,100825.19
2022-12-20T05:41:53.623Z,100835.72
2022-12-20T05:44:23.007Z,100823.63
2022-12-20T05:46:52.686Z,100836.25
2022-12-20T05:49:25.724Z,100835.34
2022-12-20T05:51:53.797Z,100832.56
2022-12-20T05:54:25.647Z,100836.00
2022-12-20T05:57:04.582Z,100821.19
2022-12-20T05:59:37.795Z,100829.25
2022-12-20T06:02:07.997Z,100821.28
2022-12-20T06:04:36.983Z,100828.63
2022-12-20T06:07:10.848Z,100806.69
2022-12-20T06:09:38.149Z,100823.88
2022-12-20T06:12:09.098Z,100819.19
2022-12-20T06:14:36.371Z,100820.84
2022-12-20T06:17:03.456Z,100815.53
2022-12-20T06:19:32.123Z,100828.78
2022-12-20T06:22:01.090Z,100820.59
2022-12-20T06:24:39.482Z,100825.75
2022-12-20T06:27:09.938Z,100829.81
2022-12-20T06:29:38.801Z,100826.16
2022-12-20T06:32:09.997Z,100827.22
2022-12-20T06:34:38.664Z,100828.94
2022-12-20T06:37:05.731Z,100838.00
2022-12-20T06:39:34.831Z,100824.78
2022-12-20T06:42:06.965Z,100838.13
2022-12-20T06:44:35.597Z,100825.41
2022-12-20T06:47:03.798Z,100826.50
2022-12-20T06:49:30.948Z,100828.09
2022-12-20T06:51:59.024Z,100820.50
2022-12-20T06:54:35.420Z,100820.59
2022-12-20T06:57:02.849Z,100812.63
2022-12-20T06:59:30.182Z,100820.59
2022-12-20T07:01:57.311Z,100811.75
2022-12-20T07:04:25.964Z,100811.03
2022-12-20T07:06:52.925Z,100803.06
2022-12-20T07:09:19.840Z,100802.44
2022-12-20T07:11:46.869Z,100799.72
2022-12-20T07:14:13.764Z,100810.63
2022-12-20T07:16:43.346Z,100805.13
2022-12-20T07:19:13.748Z,100799.22
2022-12-20T07:21:40.869Z,100817.13
2022-12-20T07:24:08.587Z,100812.47
2022-12-20T07:26:36.335Z,100816.00
2022-12-20T07:29:04.438Z,100815.03
2022-12-20T07:31:31.435Z,100823.00
2022-12-20T07:34:00.829Z,100820.09
2022-12-20T07:36:27.832Z,100825.34
2022-12-20T07:38:54.839Z,100822.78
2022-12-20T07:41:22.495Z,100812.75
2022-12-20T07:43:49.460Z,100824.38
2022-12-20T07:46:17.930Z,100816.91
2022-12-20T07:48:45.954Z,100830.25
2022-12-20T07:51:28.399Z,100825.75
2022-12-20T07:54:11.880Z,100823.41
2022-12-20T07:56:44.677Z,100820.38
2022-12-20T07:59:16.572Z,100810.06
2022-12-20T08:01:45.677Z,100810.06
2022-12-20T08:04:21.558Z,100808.09
2022-12-20T08:06:50.956Z,100805.41
2022-12-20T08:09:18.755Z,100810.06
2022-12-20T08:11:49.030Z,100809.31
2022-12-20T08:14:18.725Z,100806.38
2022-12-20T08:16:46.509Z,100811.03
2022-12-20T08:19:13.488Z,100817.88
2022-12-20T08:21:40.415Z,100804.34
2022-12-20T08:24:08.267Z,100808.00
2022-12-20T08:26:42.303Z,100795.59
2022-12-20T08:29:10.529Z,100804.28
2022-12-20T08:31:43.127Z,100800.44
2022-12-20T08:34:14.726Z,100799.94
2022-12-20T08:36:41.652Z,100792.31
2022-12-20T08:39:08.663Z,100789.00
2022-12-20T08:41:37.471Z,100786.31
2022-12-20T08:44:05.939Z,100785.56
2022-12-20T08:46:33.099Z,100768.56
2022-12-20T08:49:00.181Z,100766.59
2022-12-20T08:51:27.247Z,100770.78
2022-12-20T08:53:54.307Z,100763.56
2022-12-20T08:56:21.509Z,100768.84
2022-12-20T08:58:49.012Z,100758.09
2022-12-20T09:01:19.187Z,100759.69
2022-12-20T09:03:47.456Z,100745.59
2022-12-20T09:06:20.590Z,100753.53
2022-12-20T09:08:48.781Z,100746.09
2022-12-20T09:11:24.092Z,100732.41
2022-12-20T09:13:56.446Z,100733.13
2022-12-20T09:16:27.516Z,100745.53
2022-12-20T09:19:04.659Z,100750.91
2022-12-20T09:21:33.624Z,100740.00
2022-12-20T09:24:00.654Z,100753.13
2022-12-20T09:26:27.676Z,100744.06
2022-12-20T09:28:55.405Z,100761.94
2022-12-20T09:31:27.312Z,100749.19
2022-12-20T09:33:58.299Z,100747.25
2022-12-20T09:36:27.848Z,100748.75
2022-12-20T09:38:56.381Z,100756.56
2022-12-20T09:41:39.664Z,100735.78
2022-12-20T09:44:33.941Z,100739.22
2022-12-20T09:47:10.749Z,100727.22
2022-12-20T09:49:42.992Z,100723.19
2022-12-20T09:52:27.545Z,100731.41
2022-12-20T09:54:59.962Z,100730.06
2022-12-20T09:57:53.819Z,100732.31
2022-12-20T10:00:21.546Z,100728.38
2022-12-20T10:03:09.858Z,100718.75
2022-12-20T10:06:05.538Z,100722.19
2022-12-20T10:08:43.303Z,100711.13
2022-12-20T10:11:58.272Z,100716.41
2022-12-20T10:14:31.022Z,100704.63
2022-12-20T10:17:32.761Z,100712.94
2022-12-20T10:20:12.321Z,100697.22
2022-12-20T10:22:56.126Z,100691.47
2022-12-20T10:25:30.652Z,100690.47
2022-12-20T10:27:58.292Z,100699.41
2022-12-20T10:30:27.856Z,100687.03
2022-12-20T10:32:57.946Z,100693.31
2022-12-20T10:35:31.347Z,100688.03
2022-12-20T10:38:09.907Z,100693.56
2022-12-20T10:41:19.956Z,100684.88
2022-12-20T10:43:46.548Z,100674.81
2022-12-20T10:46:18.819Z,100677.59
2022-12-20T10:48:48.368Z,100675.41
2022-12-20T10:51:22.174Z,100681.41
2022-12-20T10:54:03.811Z,100675.63
2022-12-20T10:56:35.016Z,100681.72
2022-12-20T10:59:15.735Z,100673.16
2022-12-20T11:01:47.325Z,100664.19
2022-12-20T11:04:38.695Z,100660.84
2022-12-20T11:07:27.358Z,100660.81
2022-12-20T11:10:20.455Z,100658.19
2022-12-20T11:12:54.499Z,100653.38
2022-12-20T11:15:36.542Z,100654.09
2022-12-20T11:18:15.355Z,100647.84
2022-12-20T11:21:04.306Z,100657.91
2022-12-20T11:23:42.571Z,100646.50
2022-12-20T11:26:42.302Z,100656.22
2022-12-20T11:29:42.873Z,100647.25
2022-12-20T11:33:28.179Z,100642.31
2022-12-20T11:36:27.809Z,100639.00
2022-12-20T11:39:14.609Z,100630.50
2022-12-20T11:41:55.462Z,100618.13
2022-12-20T11:44:52.043Z,100628.94
2022-12-20T11:47:53.714Z,100618.28
2022-12-20T11:51:01.977Z,100621.56
2022-12-20T11:53:51.030Z,100611.59
2022-12-20T11:56:38.589Z,100619.31
2022-12-20T11:59:35.058Z,100611.81
2022-12-20T12:02:22.419Z,100604.72
2022-12-20T12:05:00.108Z,100604.84
2022-12-20T12:07:34.392Z,100592.78
2022-12-20T12:10:20.230Z,100582.84
2022-12-20T12:13:17.255Z,100589.09
2022-12-20T12:16:06.696Z,100590.69
2022-12-20T12:18:36.267Z,100585.13
2022-12-20T12:21:18.221Z,100597.78
2022-12-20T12:23:45.088Z,100585.03
2022-12-20T12:26:28.085Z,100578.03
2022-12-20T12:28:59.178Z,100583.19
2022-12-20T12:31:53.889Z,100588.59
2022-12-20T12:34:55.287Z,100589.94
2022-12-20T12:37:50.714Z,100582.97
2022-12-20T12:40:51.981Z,100584.81
2022-12-20T12:43:55.011Z,100581.50
2022-12-20T12:46:30.626Z,100591.88
2022-12-20T12:49:18.512Z,100588.59
2022-12-20T12:51:54.317Z,100579.91
2022-12-20T12:54:41.405Z,100575.63
2022-12-20T12:57:18.495Z,100576.13
2022-12-20T12:59:48.631Z,100580.22
2022-12-20T13:02:16.408Z,100574.69
2022-12-20T13:05:04.686Z,100568.41
2022-12-20T13:07:37.214Z,100577.63
2022-12-20T13:10:10.158Z,100567.97
2022-12-20T13:12:40.078Z,100573.50
2022-12-20T13:15:21.997Z,100576.31
2022-12-20T13:18:01.007Z,100573.75
2022-12-20T13:20:34.041Z,100572.91
2022-12-20T13:23:10.331Z,100573.91
2022-12-20T13:25:49.168Z,100577.56
2022-12-20T13:28:19.474Z,100578.41
2022-12-20T13:31:09.891Z,100579.28
2022-12-20T13:33:51.704Z,100582.25
2022-12-20T13:36:34.100Z,100577.72
2022-12-20T13:39:25.243Z,100586.91
2022-12-20T13:42:22.842Z,100589.59
2022-12-20T13:44:53.035Z,100586.44
2022-12-20T13:47:25.920Z,100588.41
2022-12-20T13:49:52.969Z,100582.72
2022-12-20T13:52:31.195Z,100589.31
2022-12-20T13:55:07.602Z,100571.22
2022-12-20T13:57:46.110Z,100586.94
2022-12-20T14:00:18.531Z,100596.25
2022-12-20T14:02:46.437Z,100592.22
2022-12-20T14:05:41.787Z,100580.84
2022-12-20T14:08:16.530Z,100588.22
2022-12-20T14:10:43.471Z,100576.09
2022-12-20T14:13:24.219Z,100575.22
2022-12-20T14:15:51.943Z,100566.28
2022-12-20T14:18:21.461Z,100565.56
2022-12-20T14:20:55.964Z,100567.28
2022-12-20T14:23:29.690Z,100561.28
2022-12-20T14:26:02.412Z,100562.13
2022-12-20T14:28:37.914Z,100558.59
2022-12-20T14:31:07.658Z,100557.00
2022-12-20T14:33:37.782Z,100555.91
2022-12-20T14:36:16.717Z,100561.28
2022-12-20T14:38:56.512Z,100549.75
2022-12-20T14:41:35.897Z,100550.50
2022-12-20T14:44:24.274Z,100550.88
2022-12-20T14:46:57.852Z,100542.06
2022-12-20T14:49:35.958Z,100545.50
2022-12-20T14:52:11.817Z,100548.31
2022-12-20T14:55:07.592Z,100548.56
2022-12-20T14:57:35.697Z,100553.22
2022-12-20T15:00:29.192Z,100537.03
2022-12-20T15:02:56.123Z,100537.03
2022-12-20T15:05:35.825Z,100534.50
2022-12-20T15:08:23.122Z,100539.28
2022-12-20T15:11:10.695Z,100540.13
2022-12-20T15:13:43.413Z,100543.09
2022-12-20T15:16:22.982Z,100536.97
2022-12-20T15:18:56.870Z,100537.09
2022-12-20T15:21:37.355Z,100540.63
2022-12-20T15:24:10.609Z,100534.41
2022-12-20T15:26:37.733Z,100537.69
2022-12-20T15:29:05.337Z,100533.28
2022-12-20T15:31:37.280Z,100533.88
2022-12-20T15:34:37.089Z,100537.56
2022-12-20T15:37:05.054Z,100539.13
2022-12-20T15:39:33.551Z,100539.13
2022-12-20T15:42:04.719Z,100539.28
2022-12-20T15:44:33.416Z,100549.81
2022-12-20T15:47:00.872Z,100540.00
2022-12-20T15:49:31.435Z,100554.94
2022-12-20T15:51:58.954Z,100548.69
2022-12-20T15:54:35.696Z,100552.38
2022-12-20T15:57:07.706Z,100551.63
2022-12-20T16:02:29.014Z,100547.97
2022-12-20T16:04:56.331Z,100544.59
2022-12-20T16:07:23.621Z,100539.53
2022-12-20T16:09:50.817Z,100538.78
2022-12-20T16:12:29.221Z,100544.19
2022-12-20T16:14:56.947Z,100541.03
2022-12-20T16:17:24.198Z,100547.00
2022-12-20T16:19:51.163Z,100535.75
2022-12-20T16:22:22.563Z,100532.94
2022-12-20T16:24:50.663Z,100533.56
2022-12-20T16:27:17.971Z,100516.66
2022-12-20T16:29:45.461Z,100524.88
2022-12-20T16:32:21.568Z,100524.13
2022-12-20T16:34:52.813Z,100524.25
2022-12-20T16:37:19.792Z,100520.59
2022-12-20T16:39:47.036Z,100522.41
2022-12-20T16:42:17.306Z,100524.13
2022-12-20T16:44:45.736Z,100521.72
2022-12-20T16:47:14.478Z,100528.06
2022-12-20T16:49:51.905Z,100517.53
2022-12-20T16:52:23.538Z,100535.41
2022-12-20T16:54:51.508Z,100521.22
2022-12-20T16:57:19.044Z,100527.56
2022-12-20T16:59:45.944Z,100530.53
2022-12-20T17:02:24.746Z,100523.44
2022-12-20T17:04:52.048Z,100523.44
2022-12-20T17:07:18.974Z,100535.19
2022-12-20T17:12:30.605Z,100539.81
2022-12-20T17:14:57.528Z,100528.91
2022-12-20T17:17:24.665Z,100532.63
2022-12-20T17:19:51.555Z,100534.44
2022-12-20T17:22:25.033Z,100531.59
2022-12-20T17:24:52.065Z,100537.00
2022-12-20T17:27:19.028Z,100536.16
2022-12-20T17:29:46.109Z,100535.31
2022-12-20T17:32:23.953Z,100536.00
2022-12-20T17:34:51.531Z,100538.00
2022-12-20T17:37:18.718Z,100546.91
2022-12-20T17:39:45.926Z,100547.91
2022-12-20T17:42:14.017Z,100546.19
2022-12-20T17:44:41.192Z,100540.06
2022-12-20T17:47:08.591Z,100539.34
2022-12-20T17:49:35.838Z,100544.00
2022-12-20T17:52:02.980Z,100542.41
2022-12-20T17:54:38.588Z,100536.16
2022-12-20T17:57:13.038Z,100539.94
2022-12-20T17:59:40.013Z,100540.81
2022-12-20T18:02:33.277Z,100540.31
2022-12-20T18:05:00.443Z,100547.41
2022-12-20T18:07:28.306Z,100548.53
2022-12-20T18:09:55.331Z,100551.44
2022-12-20T18:12:22.296Z,100544.34
2022-12-20T18:14:50.025Z,100541.91
2022-12-20T18:17:17.504Z,100533.94
2022-12-20T18:19:45.514Z,100533.94
2022-12-20T18:22:13.765Z,100532.97
2022-12-20T18:24:40.836Z,100526.13
2022-12-20T18:27:07.798Z,100530.63
2022-12-20T18:29:34.775Z,100516.47
2022-12-20T18:32:01.824Z,100523.94
2022-12-20T18:34:29.051Z,100525.63
2022-12-20T18:36:55.977Z,100515.00
2022-12-20T18:39:23.177Z,100524.03
2022-12-20T18:41:50.042Z,100515.13
2022-12-20T18:44:17.266Z,100513.63
2022-12-20T18:46:44.203Z,100507.16
2022-12-20T18:49:11.799Z,100510.09
2022-12-20T18:51:38.730Z,100510.22
2022-12-20T18:54:10.649Z,100516.47
2022-12-20T18:56:39.530Z,100511.22
2022-12-20T18:59:11.797Z,100506.19
2022-12-20T19:01:41.048Z,100513.28
2022-12-20T19:04:09.129Z,100508.88
2022-12-20T19:06:37.753Z,100516.22
2022-12-20T19:09:09.034Z,100512.69
2022-12-20T19:11:37.101Z,100512.69
2022-12-20T19:14:04.058Z,100509.97
2022-12-20T19:16:34.434Z,100508.13
2022-12-20T19:19:03.934Z,100504.09
2022-12-20T19:21:34.876Z,100506.41
2022-12-20T19:24:06.907Z,100502.88
2022-12-20T19:26:36.899Z,100501.16
2022-12-20T19:29:05.121Z,100500.44
2022-12-20T19:31:36.166Z,100508.50
2022-12-20T19:34:10.396Z,100507.03
2022-12-20T19:36:46.387Z,100503.63
2022-12-20T19:39:20.702Z,100502.75
2022-12-20T19:42:13.987Z,100498.47
2022-12-20T19:44:36.273Z,100503.38
2022-12-20T19:47:06.559Z,100498.44
2022-12-20T19:49:35.531Z,100494.28
2022-12-20T19:52:02.949Z,100493.16
2022-12-20T19:54:29.963Z,100493.75
2022-12-20T19:56:58.406Z,100496.53
2022-12-20T19:59:25.508Z,100489.94
2022-12-20T20:01:52.490Z,100496.34
2022-12-20T20:04:20.112Z,100497.84
2022-12-20T20:06:47.008Z,100500.06
2022-12-20T20:09:14.548Z,100501.78
2022-12-20T20:11:41.409Z,100499.72
2022-12-20T20:14:10.094Z,100502.16
2022-12-20T20:16:37.911Z,100500.91
2022-12-20T20:19:05.526Z,100489.66
2022-12-20T20:21:34.887Z,100498.72
2022-12-20T20:24:02.618Z,100513.13
2022-12-20T20:26:31.803Z,100506.03
2022-12-20T20:29:00.959Z,100509.72
2022-12-20T20:31:28.078Z,100495.41
2022-12-20T20:33:55.172Z,100503.34
2022-12-20T20:36:23.474Z,100498.84
2022-12-20T20:38:52.272Z,100488.09
2022-12-20T20:41:19.228Z,100483.81
2022-12-20T20:43:46.543Z,100481.22
2022-12-20T20:46:16.128Z,100488.09
2022-12-20T20:48:44.096Z,100495.28
2022-12-20T20:51:11.457Z,100491.00
2022-12-20T20:53:39.306Z,100497.34
2022-12-20T20:56:07.853Z,100496.50
2022-12-20T20:58:35.677Z,100488.56
2022-12-20T21:01:04.878Z,100488.56
2022-12-20T21:03:33.326Z,100487.81
2022-12-20T21:06:37.140Z,100485.97
2022-12-20T21:08:47.879Z,100486.13
2022-12-20T21:11:15.089Z,100480.88
2022-12-20T21:13:42.077Z,100473.50
2022-12-20T21:16:20.310Z,100484.25
2022-12-20T21:18:55.055Z,100489.78
2022-12-20T21:21:23.274Z,100497.00
2022-12-20T21:23:50.643Z,100487.81
2022-12-20T21:26:19.116Z,100499.44
2022-12-20T21:28:46.617Z,100499.53
2022-12-20T21:31:17.179Z,100493.53
2022-12-20T21:33:46.046Z,100479.47
2022-12-20T21:36:17.193Z,100483.13
2022-12-20T21:38:53.707Z,100479.84
2022-12-20T21:41:23.320Z,100475.34
2022-12-20T21:43:54.448Z,100472.66
2022-12-20T21:46:21.525Z,100469.22
2022-12-20T21:48:48.451Z,100462.00
2022-12-20T21:51:22.347Z,100475.22
2022-12-20T21:53:53.111Z,100470.66
2022-12-20T21:56:21.896Z,100469.97
2022-12-20T21:58:50.718Z,100469.09
2022-12-20T22:01:22.081Z,100462.00
2022-12-20T22:04:04.765Z,100464.44
2022-12-20T22:06:32.480Z,100461.00
2022-12-20T22:09:00.221Z,100464.56
2022-12-20T22:11:27.733Z,100474.59
2022-12-20T22:13:55.990Z,100466.66
2022-12-20T22:16:26.057Z,100471.03
2022-12-20T22:18:55.294Z,100480.94
2022-12-20T22:21:33.818Z,100488.16
2022-12-20T22:24:01.796Z,100487.41
2022-12-20T22:26:31.763Z,100481.06
2022-12-20T22:29:05.161Z,100473.00
2022-12-20T22:31:33.101Z,100472.25
2022-12-20T22:34:00.396Z,100472.25
2022-12-20T22:36:28.029Z,100477.84
2022-12-20T22:38:56.583Z,100474.34
2022-12-20T22:41:28.606Z,100477.63
2022-12-20T22:43:58.082Z,100478.38
2022-12-20T22:46:25.494Z,100481.06
2022-12-20T22:48:52.610Z,100470.41
2022-12-20T22:51:22.027Z,100479.34
2022-12-20T22:53:49.522Z,100475.06
2022-12-20T22:56:19.467Z,100469.09
2022-12-20T22:58:46.998Z,100482.03
2022-12-20T23:01:16.156Z,100476.88
2022-12-20T23:03:44.359Z,100486.81
2022-12-20T23:06:15.693Z,100481.28
2022-12-20T23:08:43.278Z,100472.47
2022-12-20T23:11:38.014Z,100472.75
2022-12-20T23:14:24.885Z,100472.47
2022-12-20T23:16:53.528Z,100473.34
2022-12-20T23:19:20.429Z,100473.34
2022-12-20T23:22:05.831Z,100474.19
2022-12-20T23:24:32.725Z,100467.09
2022-12-20T23:26:59.886Z,100471.50
2022-12-20T23:29:26.855Z,100479.47
2022-12-20T23:31:53.881Z,100476.03
2022-12-20T23:34:21.147Z,100478.84
2022-12-20T23:36:48.396Z,100476.03
2022-12-20T23:39:15.380Z,100468.44
2022-12-20T23:41:42.245Z,100469.31
2022-12-20T23:44:09.268Z,100472.97
2022-12-20T23:46:36.121Z,100460.28
2022-12-20T23:49:03.013Z,100464.78
2022-12-20T23:51:30.097Z,100454.16
2022-12-20T23:53:57.842Z,100459.53
2022-12-20T23:56:25.194Z,100458.56
2022-12-20T23:58:54.194Z,100469.78
